createdAt,value
2023-01-29T00:00:48.529Z,39.60
2023-01-29T00:01:48.583Z,39.50
2023-01-29T00:02:48.579Z,39.50
2023-01-29T00:03:48.529Z,40.90
2023-01-29T00:04:48.484Z,39.80
2023-01-29T00:05:48.478Z,39.50
2023-01-29T00:06:48.465Z,38.40
2023-01-29T00:07:48.460Z,38.90
2023-01-29T00:08:48.459Z,36.50
2023-01-29T00:09:48.455Z,39.80
2023-01-29T00:10:48.426Z,38.60
2023-01-29T00:11:48.422Z,38.30
2023-01-29T00:12:48.408Z,39.30
2023-01-29T00:13:48.416Z,38.90
2023-01-29T00:14:48.385Z,38.60
2023-01-29T00:15:48.380Z,38.50
2023-01-29T00:16:48.405Z,39.80
2023-01-29T00:17:48.386Z,40.70
2023-01-29T00:18:48.370Z,40.60
2023-01-29T00:19:48.339Z,39.90
2023-01-29T00:20:48.335Z,39.30
2023-01-29T00:21:48.326Z,39.30
2023-01-29T00:22:48.327Z,36.00
2023-01-29T00:23:48.318Z,37.20
2023-01-29T00:24:48.287Z,34.40
2023-01-29T00:25:48.281Z,37.20
2023-01-29T00:26:48.267Z,37.80
2023-01-29T00:27:48.261Z,39.40
2023-01-29T00:28:48.262Z,38.90
2023-01-29T00:29:48.241Z,39.20
2023-01-29T00:30:48.223Z,41.50
2023-01-29T00:31:48.290Z,37.80
2023-01-29T00:32:48.210Z,36.40
2023-01-29T00:33:48.213Z,37.00
2023-01-29T00:34:48.189Z,36.40
2023-01-29T00:35:48.185Z,40.70
2023-01-29T00:36:48.167Z,38.50
2023-01-29T00:37:48.157Z,38.60
2023-01-29T00:38:48.156Z,38.40
2023-01-29T00:39:48.533Z,37.70
2023-01-29T00:40:48.127Z,38.30
2023-01-29T00:41:48.114Z,39.80
2023-01-29T00:42:48.098Z,40.90
2023-01-29T00:43:48.119Z,39.50
2023-01-29T00:44:48.083Z,40.30
2023-01-29T00:45:48.077Z,40.40
2023-01-29T00:46:48.132Z,41.50
2023-01-29T00:47:48.057Z,44.60
2023-01-29T00:48:48.053Z,41.30
2023-01-29T00:49:48.033Z,39.30
2023-01-29T00:50:48.025Z,40.90
2023-01-29T00:51:48.009Z,40.60
2023-01-29T00:52:47.999Z,41.80
2023-01-29T00:53:48.010Z,39.00
2023-01-29T00:54:47.975Z,38.90
2023-01-29T00:55:47.976Z,39.80
2023-01-29T00:56:47.949Z,41.80
2023-01-29T00:57:47.950Z,42.20
2023-01-29T00:58:47.946Z,39.90
2023-01-29T00:59:47.951Z,40.50
2023-01-29T01:00:47.934Z,39.10
2023-01-29T01:01:47.951Z,39.20
2023-01-29T01:02:47.908Z,40.80
2023-01-29T01:03:47.888Z,40.90
2023-01-29T01:04:47.887Z,41.60
2023-01-29T01:05:47.870Z,39.20
2023-01-29T01:06:47.853Z,38.80
2023-01-29T01:07:47.853Z,41.00
2023-01-29T01:08:47.836Z,39.80
2023-01-29T01:09:47.838Z,40.60
2023-01-29T01:10:47.808Z,39.40
2023-01-29T01:11:47.801Z,37.80
2023-01-29T01:12:47.787Z,37.80
2023-01-29T01:13:47.779Z,40.70
2023-01-29T01:14:47.784Z,42.00
2023-01-29T01:15:47.772Z,39.30
2023-01-29T01:16:47.747Z,39.00
2023-01-29T01:17:47.746Z,42.10
2023-01-29T01:18:47.737Z,38.50
2023-01-29T01:19:47.742Z,39.90
2023-01-29T01:20:47.709Z,38.10
2023-01-29T01:21:47.710Z,38.40
2023-01-29T01:22:47.683Z,41.00
2023-01-29T01:23:47.685Z,41.10
2023-01-29T01:24:47.679Z,41.90
2023-01-29T01:25:47.659Z,38.50
2023-01-29T01:26:47.643Z,38.20
2023-01-29T01:27:47.651Z,41.50
2023-01-29T01:28:47.622Z,40.90
2023-01-29T01:29:47.686Z,41.50
2023-01-29T01:30:47.619Z,41.20
2023-01-29T01:31:47.650Z,39.70
2023-01-29T01:32:47.584Z,40.30
2023-01-29T01:33:47.578Z,39.20
2023-01-29T01:34:47.572Z,39.80
2023-01-29T01:35:47.560Z,42.60
2023-01-29T01:36:47.547Z,41.00
2023-01-29T01:37:47.545Z,43.00
2023-01-29T01:38:47.516Z,39.10
2023-01-29T01:39:47.522Z,41.30
2023-01-29T01:40:47.501Z,43.70
2023-01-29T01:41:47.489Z,41.90
2023-01-29T01:42:47.478Z,41.60
2023-01-29T01:43:47.467Z,41.80
2023-01-29T01:44:47.475Z,43.30
2023-01-29T01:45:47.459Z,42.50
2023-01-29T01:46:47.431Z,45.10
2023-01-29T01:47:47.429Z,42.60
2023-01-29T01:48:47.412Z,43.50
2023-01-29T01:49:47.433Z,42.00
2023-01-29T01:50:47.392Z,44.10
2023-01-29T01:51:47.385Z,45.70
2023-01-29T01:52:47.372Z,44.30
2023-01-29T01:53:47.369Z,43.70
2023-01-29T01:54:47.362Z,45.90
2023-01-29T01:55:47.344Z,44.90
2023-01-29T01:56:47.334Z,43.00
2023-01-29T01:57:47.325Z,45.80
2023-01-29T01:58:47.308Z,46.90
2023-01-29T01:59:47.320Z,45.80
2023-01-29T02:00:47.297Z,44.90
2023-01-29T02:01:47.284Z,45.20
2023-01-29T02:02:47.276Z,46.10
2023-01-29T02:03:47.264Z,47.60
2023-01-29T02:04:47.272Z,45.00
2023-01-29T02:05:47.239Z,47.70
2023-01-29T02:06:47.233Z,46.90
2023-01-29T02:07:47.219Z,45.50
2023-01-29T02:08:47.233Z,49.00
2023-01-29T02:09:47.222Z,45.90
2023-01-29T02:10:47.197Z,45.50
2023-01-29T02:11:47.180Z,47.90
2023-01-29T02:13:57.267Z,42.20
2023-01-29T02:14:58.270Z,45.30
2023-01-29T02:15:58.259Z,43.80
2023-01-29T02:16:58.241Z,43.40
2023-01-29T02:17:58.231Z,44.30
2023-01-29T02:18:58.214Z,44.00
2023-01-29T02:19:58.229Z,47.00
2023-01-29T02:20:58.203Z,44.20
2023-01-29T02:21:58.185Z,43.10
2023-01-29T02:22:58.177Z,43.30
2023-01-29T02:23:58.315Z,45.20
2023-01-29T02:24:58.169Z,41.30
2023-01-29T02:25:58.146Z,43.20
2023-01-29T02:26:58.140Z,43.10
2023-01-29T02:27:58.121Z,41.90
2023-01-29T02:28:58.115Z,43.10
2023-01-29T02:29:58.116Z,41.00
2023-01-29T02:30:58.262Z,41.10
2023-01-29T02:31:58.118Z,40.10
2023-01-29T02:32:58.071Z,42.10
2023-01-29T02:33:58.054Z,42.20
2023-01-29T02:34:58.090Z,39.50
2023-01-29T02:35:58.035Z,41.80
2023-01-29T02:36:58.031Z,42.30
2023-01-29T02:37:58.020Z,42.80
2023-01-29T02:38:58.012Z,40.00
2023-01-29T02:39:58.009Z,43.00
2023-01-29T02:40:57.993Z,42.10
2023-01-29T02:41:57.974Z,43.40
2023-01-29T02:42:57.970Z,43.70
2023-01-29T02:43:57.952Z,43.80
2023-01-29T02:44:57.968Z,44.80
2023-01-29T02:45:57.958Z,45.50
2023-01-29T02:46:57.924Z,46.20
2023-01-29T02:47:57.915Z,44.10
2023-01-29T02:48:57.935Z,42.60
2023-01-29T02:49:57.902Z,43.40
2023-01-29T02:50:57.903Z,44.80
2023-01-29T02:51:57.871Z,42.40
2023-01-29T02:52:57.866Z,41.80
2023-01-29T02:53:57.848Z,42.00
2023-01-29T02:54:57.854Z,42.60
2023-01-29T02:55:57.830Z,41.70
2023-01-29T02:56:57.822Z,41.90
2023-01-29T02:57:57.803Z,42.10
2023-01-29T02:58:57.803Z,41.00
2023-01-29T02:59:57.810Z,45.30
2023-01-29T03:00:57.806Z,41.80
2023-01-29T03:01:57.792Z,43.30
2023-01-29T03:02:57.768Z,43.20
2023-01-29T03:03:57.745Z,42.20
2023-01-29T03:04:57.755Z,43.40
2023-01-29T03:05:57.723Z,44.50
2023-01-29T03:06:57.718Z,42.80
2023-01-29T03:07:57.712Z,40.50
2023-01-29T03:08:57.705Z,42.20
2023-01-29T03:09:57.698Z,41.80
2023-01-29T03:10:57.679Z,43.60
2023-01-29T03:11:57.663Z,41.70
2023-01-29T03:12:57.657Z,44.00
2023-01-29T03:13:57.639Z,43.00
2023-01-29T03:14:57.658Z,42.40
2023-01-29T03:15:57.624Z,45.20
2023-01-29T03:16:57.616Z,44.70
2023-01-29T03:17:57.603Z,43.40
2023-01-29T03:18:57.601Z,41.60
2023-01-29T03:19:57.598Z,44.20
2023-01-29T03:20:57.576Z,44.90
2023-01-29T03:21:57.558Z,44.70
2023-01-29T03:22:57.558Z,40.70
2023-01-29T03:23:57.557Z,43.50
2023-01-29T03:24:57.543Z,44.60
2023-01-29T03:25:57.533Z,46.60
2023-01-29T03:26:57.522Z,46.60
2023-01-29T03:27:57.502Z,46.70
2023-01-29T03:28:57.493Z,44.30
2023-01-29T03:29:57.503Z,45.20
2023-01-29T03:30:57.541Z,43.70
2023-01-29T03:31:57.561Z,46.50
2023-01-29T03:32:57.448Z,45.80
2023-01-29T03:33:57.433Z,47.30
2023-01-29T03:34:57.440Z,48.00
2023-01-29T03:35:57.441Z,45.10
2023-01-29T03:36:57.411Z,46.80
2023-01-29T03:37:57.398Z,47.50
2023-01-29T03:38:57.392Z,48.40
2023-01-29T03:39:57.404Z,47.70
2023-01-29T03:40:57.367Z,45.80
2023-01-29T03:41:57.362Z,46.60
2023-01-29T03:42:57.345Z,50.00
2023-01-29T03:43:57.330Z,49.90
2023-01-29T03:44:57.339Z,48.60
2023-01-29T03:45:57.367Z,49.20
2023-01-29T03:46:57.302Z,47.70
2023-01-29T03:47:57.294Z,48.30
2023-01-29T03:48:57.282Z,49.20
2023-01-29T03:49:57.291Z,48.60
2023-01-29T03:50:57.270Z,46.40
2023-01-29T03:51:57.276Z,49.40
2023-01-29T03:52:57.238Z,48.20
2023-01-29T03:53:57.227Z,47.60
2023-01-29T03:54:57.240Z,46.70
2023-01-29T03:55:57.203Z,49.60
2023-01-29T03:56:57.202Z,46.60
2023-01-29T03:57:57.181Z,47.20
2023-01-29T03:58:57.179Z,47.70
2023-01-29T03:59:57.175Z,46.40
2023-01-29T04:00:57.154Z,48.20
2023-01-29T04:01:57.138Z,50.30
2023-01-29T04:02:57.142Z,48.60
2023-01-29T04:03:57.223Z,47.50
2023-01-29T04:04:57.130Z,51.00
2023-01-29T04:05:57.096Z,48.80
2023-01-29T04:06:57.093Z,47.40
2023-01-29T04:07:57.079Z,48.50
2023-01-29T04:08:57.078Z,51.20
2023-01-29T04:09:57.074Z,49.80
2023-01-29T04:10:57.060Z,49.40
2023-01-29T04:11:57.037Z,47.20
2023-01-29T04:12:57.054Z,49.40
2023-01-29T04:13:57.016Z,46.30
2023-01-29T04:14:57.031Z,49.60
2023-01-29T04:15:56.998Z,48.60
2023-01-29T04:16:56.992Z,49.60
2023-01-29T04:17:56.982Z,50.30
2023-01-29T04:18:56.976Z,48.60
2023-01-29T04:19:56.973Z,46.90
2023-01-29T04:20:56.955Z,47.20
2023-01-29T04:21:56.940Z,48.40
2023-01-29T04:22:56.940Z,45.90
2023-01-29T04:23:56.946Z,49.00
2023-01-29T04:24:56.927Z,47.30
2023-01-29T04:25:56.904Z,51.80
2023-01-29T04:26:56.898Z,47.00
2023-01-29T04:27:56.880Z,47.60
2023-01-29T04:28:56.876Z,46.90
2023-01-29T04:29:56.863Z,47.60
2023-01-29T04:30:56.936Z,48.40
2023-01-29T04:31:56.872Z,45.40
2023-01-29T04:32:56.835Z,49.20
2023-01-29T04:33:56.823Z,44.70
2023-01-29T04:34:56.823Z,46.40
2023-01-29T04:35:56.815Z,45.50
2023-01-29T04:36:56.795Z,49.30
2023-01-29T04:37:56.784Z,47.00
2023-01-29T04:38:56.776Z,46.90
2023-01-29T04:39:56.766Z,45.60
2023-01-29T04:40:56.772Z,48.10
2023-01-29T04:41:56.743Z,48.60
2023-01-29T04:42:56.746Z,46.70
2023-01-29T04:43:56.722Z,47.20
2023-01-29T04:44:56.723Z,50.40
2023-01-29T04:45:56.717Z,49.60
2023-01-29T04:46:56.697Z,46.90
2023-01-29T04:47:56.693Z,49.60
2023-01-29T04:48:56.679Z,48.20
2023-01-29T04:49:56.662Z,50.40
2023-01-29T04:50:56.670Z,52.00
2023-01-29T04:51:56.644Z,50.30
2023-01-29T04:52:56.641Z,51.10
2023-01-29T04:53:56.626Z,51.10
2023-01-29T04:54:56.628Z,51.30
2023-01-29T04:55:56.628Z,54.00
2023-01-29T04:56:56.602Z,50.10
2023-01-29T04:57:56.584Z,53.90
2023-01-29T04:58:56.583Z,52.50
2023-01-29T04:59:56.564Z,52.50
2023-01-29T05:00:56.584Z,52.30
2023-01-29T05:01:56.577Z,50.80
2023-01-29T05:02:56.567Z,56.40
2023-01-29T05:03:56.525Z,51.60
2023-01-29T05:04:56.520Z,51.90
2023-01-29T05:05:56.519Z,54.10
2023-01-29T05:06:56.500Z,52.10
2023-01-29T05:07:56.484Z,52.40
2023-01-29T05:08:56.492Z,53.10
2023-01-29T05:09:56.463Z,53.80
2023-01-29T05:10:56.477Z,52.80
2023-01-29T05:11:56.449Z,53.10
2023-01-29T05:12:56.441Z,52.60
2023-01-29T05:13:56.426Z,55.50
2023-01-29T05:14:56.419Z,52.50
2023-01-29T05:15:56.452Z,51.20
2023-01-29T05:16:56.414Z,56.00
2023-01-29T05:17:56.389Z,53.90
2023-01-29T05:18:56.390Z,53.60
2023-01-29T05:19:56.368Z,49.70
2023-01-29T05:20:56.404Z,53.20
2023-01-29T05:21:56.347Z,54.80
2023-01-29T05:22:56.351Z,56.20
2023-01-29T05:23:56.334Z,52.10
2023-01-29T05:24:56.359Z,54.20
2023-01-29T05:25:56.325Z,52.30
2023-01-29T05:26:56.316Z,53.40
2023-01-29T05:27:56.291Z,54.30
2023-01-29T05:28:56.396Z,53.90
2023-01-29T05:29:56.271Z,53.40
2023-01-29T05:30:56.490Z,52.40
2023-01-29T05:31:56.319Z,51.80
2023-01-29T05:32:56.271Z,52.70
2023-01-29T05:33:56.228Z,52.80
2023-01-29T05:34:56.228Z,52.70
2023-01-29T05:35:56.220Z,51.50
2023-01-29T05:36:56.217Z,52.30
2023-01-29T05:37:56.189Z,50.10
2023-01-29T05:38:56.199Z,52.20
2023-01-29T05:39:56.171Z,49.90
2023-01-29T05:40:56.198Z,52.10
2023-01-29T05:41:56.152Z,52.20
2023-01-29T05:42:56.143Z,49.60
2023-01-29T05:43:56.131Z,51.60
2023-01-29T05:44:56.166Z,51.10
2023-01-29T05:45:56.160Z,51.30
2023-01-29T05:46:56.140Z,52.10
2023-01-29T05:47:56.095Z,49.70
2023-01-29T05:48:56.089Z,50.00
2023-01-29T05:49:56.073Z,51.00
2023-01-29T05:50:56.083Z,49.20
2023-01-29T05:51:56.054Z,51.00
2023-01-29T05:52:56.045Z,49.40
2023-01-29T05:53:56.033Z,50.90
2023-01-29T05:54:56.035Z,50.00
2023-01-29T05:55:56.027Z,51.30
2023-01-29T05:56:56.008Z,52.00
2023-01-29T05:57:55.990Z,49.00
2023-01-29T05:58:55.993Z,53.90
2023-01-29T05:59:55.980Z,55.10
2023-01-29T06:00:55.980Z,52.10
2023-01-29T06:01:56.042Z,54.10
2023-01-29T06:02:56.016Z,52.40
2023-01-29T06:03:55.936Z,54.90
2023-01-29T06:04:55.929Z,54.60
2023-01-29T06:05:55.924Z,52.40
2023-01-29T06:06:55.904Z,53.40
2023-01-29T06:07:55.892Z,53.20
2023-01-29T06:08:55.888Z,54.40
2023-01-29T06:09:55.869Z,55.40
2023-01-29T06:10:55.878Z,52.60
2023-01-29T06:11:55.860Z,54.30
2023-01-29T06:12:55.846Z,54.10
2023-01-29T06:13:55.831Z,56.30
2023-01-29T06:14:55.827Z,55.90
2023-01-29T06:15:55.890Z,56.70
2023-01-29T06:16:55.803Z,57.50
2023-01-29T06:17:55.789Z,56.50
2023-01-29T06:18:55.791Z,55.60
2023-01-29T06:19:55.772Z,58.20
2023-01-29T06:20:55.789Z,57.20
2023-01-29T06:21:55.759Z,60.10
2023-01-29T06:22:55.756Z,55.40
2023-01-29T06:23:55.769Z,58.30
2023-01-29T06:24:55.729Z,57.60
2023-01-29T06:25:55.822Z,56.70
2023-01-29T06:26:55.737Z,54.80
2023-01-29T06:27:57.778Z,53.00
2023-01-29T06:28:55.678Z,58.80
2023-01-29T06:29:55.672Z,54.60
2023-01-29T06:30:55.679Z,54.00
2023-01-29T06:31:55.765Z,52.30
2023-01-29T06:32:55.605Z,53.50
2023-01-29T06:33:55.579Z,55.20
2023-01-29T06:34:55.572Z,54.70
2023-01-29T06:35:55.573Z,53.30
2023-01-29T06:36:55.553Z,57.10
2023-01-29T06:37:55.553Z,57.20
2023-01-29T06:38:55.549Z,57.40
2023-01-29T06:39:55.518Z,55.70
2023-01-29T06:40:55.530Z,55.80
2023-01-29T06:41:55.499Z,56.80
2023-01-29T06:42:55.502Z,56.90
2023-01-29T06:43:55.490Z,57.30
2023-01-29T06:44:55.471Z,56.30
2023-01-29T06:45:55.528Z,56.40
2023-01-29T06:46:55.450Z,58.80
2023-01-29T06:47:55.443Z,58.80
2023-01-29T06:48:55.431Z,56.90
2023-01-29T06:49:55.439Z,55.40
2023-01-29T06:50:55.429Z,54.40
2023-01-29T06:51:55.424Z,57.10
2023-01-29T06:52:55.388Z,56.70
2023-01-29T06:53:55.388Z,56.70
2023-01-29T06:54:55.372Z,55.90
2023-01-29T06:55:55.381Z,55.50
2023-01-29T06:56:55.351Z,57.20
2023-01-29T06:57:55.349Z,55.90
2023-01-29T06:58:55.333Z,57.50
2023-01-29T06:59:55.336Z,58.00
2023-01-29T07:00:55.348Z,57.80
2023-01-29T07:01:55.360Z,57.60
2023-01-29T07:02:55.291Z,58.40
2023-01-29T07:03:55.296Z,57.50
2023-01-29T07:04:55.275Z,55.30
2023-01-29T07:05:55.276Z,55.40
2023-01-29T07:06:55.254Z,55.30
2023-01-29T07:07:55.248Z,58.10
2023-01-29T07:08:55.241Z,58.20
2023-01-29T07:09:55.228Z,58.30
2023-01-29T07:10:55.225Z,56.70
2023-01-29T07:11:55.207Z,55.60
2023-01-29T07:12:55.198Z,55.80
2023-01-29T07:13:55.220Z,54.60
2023-01-29T07:14:55.174Z,55.10
2023-01-29T07:15:55.272Z,55.60
2023-01-29T07:16:55.161Z,55.70
2023-01-29T07:17:55.149Z,53.60
2023-01-29T07:18:55.150Z,55.70
2023-01-29T07:19:55.143Z,54.20
2023-01-29T07:20:55.128Z,56.90
2023-01-29T07:21:55.109Z,55.90
2023-01-29T07:22:55.098Z,56.60
2023-01-29T07:23:55.103Z,55.50
2023-01-29T07:24:55.076Z,61.00
2023-01-29T07:25:55.072Z,54.30
2023-01-29T07:26:55.080Z,57.20
2023-01-29T07:27:55.052Z,56.30
2023-01-29T07:28:55.039Z,56.20
2023-01-29T07:29:55.035Z,55.50
2023-01-29T07:30:55.045Z,55.90
2023-01-29T07:31:55.184Z,58.60
2023-01-29T07:32:54.999Z,57.70
2023-01-29T07:33:54.994Z,58.50
2023-01-29T07:34:54.982Z,58.70
2023-01-29T07:35:54.975Z,58.20
2023-01-29T07:36:54.983Z,59.30
2023-01-29T07:37:55.037Z,56.50
2023-01-29T07:38:54.941Z,56.40
2023-01-29T07:39:54.942Z,57.90
2023-01-29T07:40:54.927Z,59.20
2023-01-29T07:41:54.932Z,57.70
2023-01-29T07:42:54.902Z,56.60
2023-01-29T07:43:54.898Z,58.10
2023-01-29T07:44:54.883Z,54.20
2023-01-29T07:45:54.899Z,57.10
2023-01-29T07:46:54.884Z,56.00
2023-01-29T07:47:54.867Z,55.50
2023-01-29T07:48:54.843Z,55.80
2023-01-29T07:49:54.838Z,57.70
2023-01-29T07:50:54.826Z,57.20
2023-01-29T07:51:54.834Z,56.80
2023-01-29T07:52:54.813Z,55.80
2023-01-29T07:53:54.800Z,57.10
2023-01-29T07:54:54.801Z,59.70
2023-01-29T07:55:54.778Z,57.90
2023-01-29T07:56:54.780Z,56.50
2023-01-29T07:57:54.762Z,53.70
2023-01-29T07:58:54.749Z,58.80
2023-01-29T07:59:54.744Z,56.20
2023-01-29T08:00:54.757Z,52.40
2023-01-29T08:01:54.752Z,53.10
2023-01-29T08:02:54.709Z,50.50
2023-01-29T08:03:54.704Z,53.20
2023-01-29T08:04:54.687Z,53.90
2023-01-29T08:05:54.687Z,54.30
2023-01-29T08:06:54.680Z,54.00
2023-01-29T08:08:06.124Z,53.20
2023-01-29T08:08:54.659Z,54.00
2023-01-29T08:09:54.642Z,56.20
2023-01-29T08:10:54.629Z,55.50
2023-01-29T08:11:54.637Z,55.50
2023-01-29T08:12:54.607Z,58.20
2023-01-29T08:13:54.599Z,54.80
2023-01-29T08:14:54.590Z,55.90
2023-01-29T08:15:54.585Z,57.50
2023-01-29T08:16:54.591Z,54.60
2023-01-29T08:17:58.012Z,54.90
2023-01-29T08:18:54.548Z,54.20
2023-01-29T08:19:54.541Z,54.90
2023-01-29T08:20:54.529Z,56.00
2023-01-29T08:21:54.544Z,55.90
2023-01-29T08:22:54.509Z,57.50
2023-01-29T08:23:54.584Z,55.80
2023-01-29T08:25:06.272Z,53.80
2023-01-29T08:25:54.582Z,56.50
2023-01-29T08:26:54.499Z,53.20
2023-01-29T08:27:54.466Z,55.60
2023-01-29T08:28:54.456Z,54.80
2023-01-29T08:29:54.442Z,54.30
2023-01-29T08:30:54.485Z,56.00
2023-01-29T08:31:54.468Z,56.30
2023-01-29T08:32:54.439Z,56.10
2023-01-29T08:33:54.412Z,57.50
2023-01-29T08:34:54.415Z,54.50
2023-01-29T08:35:54.403Z,57.40
2023-01-29T08:36:54.398Z,58.10
2023-01-29T08:37:54.384Z,55.80
2023-01-29T08:38:54.372Z,56.00
2023-01-29T08:39:54.354Z,57.60
2023-01-29T08:40:54.336Z,54.00
2023-01-29T08:41:54.343Z,55.20
2023-01-29T08:42:54.316Z,53.10
2023-01-29T08:43:54.342Z,56.00
2023-01-29T08:44:54.291Z,54.00
2023-01-29T08:45:54.323Z,55.80
2023-01-29T08:46:54.304Z,57.80
2023-01-29T08:47:54.293Z,55.40
2023-01-29T08:48:54.261Z,52.70
2023-01-29T08:49:54.252Z,54.60
2023-01-29T08:50:54.234Z,55.50
2023-01-29T08:51:54.242Z,53.20
2023-01-29T08:52:54.214Z,55.00
2023-01-29T08:53:54.212Z,54.70
2023-01-29T08:54:54.194Z,53.90
2023-01-29T08:55:54.197Z,53.00
2023-01-29T08:56:54.192Z,56.10
2023-01-29T08:57:54.174Z,60.00
2023-01-29T08:58:54.161Z,54.00
2023-01-29T08:59:54.148Z,54.80
2023-01-29T09:00:54.181Z,57.30
2023-01-29T09:01:54.159Z,55.80
2023-01-29T09:02:54.123Z,53.40
2023-01-29T09:03:54.109Z,55.90
2023-01-29T09:04:54.114Z,53.30
2023-01-29T09:05:54.106Z,52.60
2023-01-29T09:06:54.090Z,53.50
2023-01-29T09:07:54.364Z,51.90
2023-01-29T09:08:54.065Z,53.50
2023-01-29T09:09:54.057Z,52.50
2023-01-29T09:10:54.050Z,54.10
2023-01-29T09:11:54.043Z,52.90
2023-01-29T09:12:54.015Z,54.10
2023-01-29T09:13:54.010Z,52.50
2023-01-29T09:14:53.995Z,54.30
2023-01-29T09:15:53.990Z,51.50
2023-01-29T09:16:54.019Z,53.50
2023-01-29T09:17:54.033Z,52.50
2023-01-29T09:18:53.955Z,54.00
2023-01-29T09:19:53.949Z,53.70
2023-01-29T09:20:53.937Z,53.00
2023-01-29T09:21:53.950Z,51.70
2023-01-29T09:22:53.913Z,50.40
2023-01-29T09:23:59.923Z,52.80
2023-01-29T09:24:53.895Z,51.10
2023-01-29T09:25:53.887Z,50.30
2023-01-29T09:26:53.893Z,49.90
2023-01-29T09:27:53.902Z,48.40
2023-01-29T09:28:53.871Z,49.20
2023-01-29T09:29:53.851Z,47.40
2023-01-29T09:30:54.011Z,48.50
2023-01-29T09:31:54.004Z,50.10
2023-01-29T09:32:54.778Z,47.20
2023-01-29T09:33:53.809Z,49.60
2023-01-29T09:34:53.793Z,48.40
2023-01-29T09:35:53.802Z,48.60
2023-01-29T09:36:53.790Z,49.40
2023-01-29T09:37:53.806Z,47.80
2023-01-29T09:38:53.764Z,48.10
2023-01-29T09:39:53.754Z,49.40
2023-01-29T09:40:53.729Z,45.90
2023-01-29T09:41:53.761Z,48.00
2023-01-29T09:42:53.713Z,49.30
2023-01-29T09:43:53.704Z,48.40
2023-01-29T09:44:53.696Z,47.00
2023-01-29T09:45:53.694Z,48.90
2023-01-29T09:46:53.682Z,45.30
2023-01-29T09:47:53.664Z,48.00
2023-01-29T09:48:53.648Z,47.70
2023-01-29T09:49:53.642Z,45.50
2023-01-29T09:50:53.630Z,46.60
2023-01-29T09:51:53.644Z,44.00
2023-01-29T09:52:53.612Z,44.50
2023-01-29T09:53:53.628Z,42.50
2023-01-29T09:54:53.592Z,43.40
2023-01-29T09:55:53.584Z,42.90
2023-01-29T09:56:53.580Z,44.20
2023-01-29T09:57:53.565Z,44.00
2023-01-29T09:58:53.555Z,43.20
2023-01-29T09:59:53.541Z,43.50
2023-01-29T10:00:53.532Z,43.10
2023-01-29T10:01:53.603Z,42.70
2023-01-29T10:02:53.516Z,42.10
2023-01-29T10:03:53.515Z,44.60
2023-01-29T10:04:53.545Z,41.00
2023-01-29T10:05:53.491Z,43.00
2023-01-29T10:06:53.496Z,40.50
2023-01-29T10:07:53.488Z,42.40
2023-01-29T10:08:53.445Z,40.90
2023-01-29T10:09:53.440Z,40.90
2023-01-29T10:10:53.425Z,41.90
2023-01-29T10:11:53.436Z,40.20
2023-01-29T10:12:53.408Z,40.40
2023-01-29T10:13:53.411Z,39.80
2023-01-29T10:14:53.395Z,39.40
2023-01-29T10:15:53.382Z,41.10
2023-01-29T10:16:53.435Z,40.00
2023-01-29T10:17:53.365Z,38.80
2023-01-29T10:18:53.357Z,39.50
2023-01-29T10:19:53.368Z,38.40
2023-01-29T10:20:53.332Z,37.90
2023-01-29T10:21:53.336Z,38.10
2023-01-29T10:22:53.307Z,39.50
2023-01-29T10:23:53.325Z,37.30
2023-01-29T10:24:53.290Z,38.80
2023-01-29T10:25:53.322Z,38.60
2023-01-29T10:26:53.299Z,35.90
2023-01-29T10:27:53.305Z,37.30
2023-01-29T10:28:53.257Z,37.50
2023-01-29T10:29:53.238Z,37.30
2023-01-29T10:30:53.367Z,36.90
2023-01-29T10:31:53.368Z,37.50
2023-01-29T10:32:53.205Z,35.40
2023-01-29T10:34:08.547Z,38.20
2023-01-29T10:34:53.200Z,37.90
2023-01-29T10:35:55.308Z,36.60
2023-01-29T10:36:53.183Z,35.90
2023-01-29T10:37:53.159Z,38.10
2023-01-29T10:38:53.141Z,36.10
2023-01-29T10:39:53.135Z,36.70
2023-01-29T10:40:53.127Z,37.50
2023-01-29T10:41:54.020Z,36.30
2023-01-29T10:42:53.118Z,35.30
2023-01-29T10:43:53.099Z,34.40
2023-01-29T10:44:53.091Z,39.10
2023-01-29T10:45:53.078Z,36.50
2023-01-29T10:46:53.067Z,37.10
2023-01-29T10:47:53.156Z,39.50
2023-01-29T10:48:53.045Z,36.90
2023-01-29T10:49:53.036Z,34.50
2023-01-29T10:50:53.020Z,36.30
2023-01-29T10:51:53.018Z,37.00
2023-01-29T10:52:53.021Z,40.30
2023-01-29T10:53:53.002Z,37.60
2023-01-29T10:54:53.011Z,37.70
2023-01-29T10:55:52.976Z,38.10
2023-01-29T10:56:52.968Z,37.70
2023-01-29T10:57:52.966Z,37.20
2023-01-29T10:58:52.949Z,39.10
2023-01-29T10:59:52.938Z,37.80
2023-01-29T11:00:52.936Z,38.20
2023-01-29T11:01:52.970Z,37.80
2023-01-29T11:02:53.146Z,37.80
2023-01-29T11:03:52.887Z,37.70
2023-01-29T11:04:52.883Z,36.20
2023-01-29T11:05:52.873Z,35.40
2023-01-29T11:06:52.868Z,37.70
2023-01-29T11:07:52.861Z,36.60
2023-01-29T11:08:52.856Z,36.00
2023-01-29T11:09:52.830Z,35.10
2023-01-29T11:10:52.840Z,36.00
2023-01-29T11:11:52.837Z,35.80
2023-01-29T11:12:52.818Z,36.30
2023-01-29T11:13:52.789Z,36.50
2023-01-29T11:14:52.792Z,35.40
2023-01-29T11:15:52.778Z,34.80
2023-01-29T11:16:52.835Z,35.90
2023-01-29T11:17:52.779Z,37.10
2023-01-29T11:18:52.777Z,35.00
2023-01-29T11:19:52.761Z,34.10
2023-01-29T11:20:52.734Z,35.40
2023-01-29T11:21:52.704Z,37.70
2023-01-29T11:22:52.732Z,33.50
2023-01-29T11:23:52.687Z,35.70
2023-01-29T11:24:52.681Z,34.50
2023-01-29T11:25:52.677Z,34.10
2023-01-29T11:26:52.660Z,35.20
2023-01-29T11:27:52.661Z,35.80
2023-01-29T11:28:52.638Z,34.90
2023-01-29T11:29:52.623Z,34.10
2023-01-29T11:30:52.754Z,34.70
2023-01-29T11:31:52.659Z,36.30
2023-01-29T11:32:52.613Z,35.30
2023-01-29T11:33:52.588Z,35.10
2023-01-29T11:34:52.579Z,37.60
2023-01-29T11:35:52.644Z,32.60
2023-01-29T11:36:52.560Z,33.30
2023-01-29T11:37:52.561Z,34.30
2023-01-29T11:38:52.535Z,33.80
2023-01-29T11:39:52.521Z,33.80
2023-01-29T11:40:52.535Z,33.80
2023-01-29T11:41:52.501Z,33.90
2023-01-29T11:42:52.513Z,35.20
2023-01-29T11:43:52.479Z,33.70
2023-01-29T11:44:52.472Z,34.60
2023-01-29T11:45:52.455Z,37.50
2023-01-29T11:46:52.453Z,34.50
2023-01-29T11:47:52.459Z,35.70
2023-01-29T11:48:53.592Z,34.60
2023-01-29T11:49:52.417Z,33.70
2023-01-29T11:50:52.417Z,37.20
2023-01-29T11:51:52.397Z,35.10
2023-01-29T11:52:52.410Z,35.60
2023-01-29T11:53:52.379Z,33.20
2023-01-29T11:54:52.375Z,35.10
2023-01-29T11:55:52.352Z,32.80
2023-01-29T11:56:52.356Z,34.50
2023-01-29T11:57:52.353Z,34.90
2023-01-29T11:58:52.326Z,33.90
2023-01-29T11:59:52.316Z,35.30
2023-01-29T12:00:52.342Z,33.90
2023-01-29T12:01:52.298Z,34.00
2023-01-29T12:02:52.299Z,32.40
2023-01-29T12:03:52.347Z,34.40
2023-01-29T12:04:52.269Z,34.50
2023-01-29T12:05:52.436Z,33.50
2023-01-29T12:06:52.271Z,34.50
2023-01-29T12:07:52.244Z,36.40
2023-01-29T12:08:52.225Z,34.20
2023-01-29T12:09:52.213Z,35.40
2023-01-29T12:10:52.199Z,33.70
2023-01-29T12:11:52.187Z,33.40
2023-01-29T12:12:52.201Z,36.00
2023-01-29T12:13:52.172Z,35.30
2023-01-29T12:14:52.164Z,36.70
2023-01-29T12:15:54.727Z,34.70
2023-01-29T12:16:52.171Z,37.40
2023-01-29T12:17:52.144Z,36.10
2023-01-29T12:18:52.175Z,38.80
2023-01-29T12:19:52.118Z,35.10
2023-01-29T12:20:52.149Z,36.00
2023-01-29T12:21:52.089Z,37.30
2023-01-29T12:22:52.089Z,35.10
2023-01-29T12:23:52.064Z,37.30
2023-01-29T12:24:52.061Z,37.50
2023-01-29T12:25:52.259Z,36.40
2023-01-29T12:26:52.044Z,37.40
2023-01-29T12:27:52.042Z,35.00
2023-01-29T12:28:52.030Z,36.70
2023-01-29T12:29:52.004Z,36.20
2023-01-29T12:30:52.036Z,37.70
2023-01-29T12:31:51.987Z,36.80
2023-01-29T12:32:52.006Z,39.20
2023-01-29T12:33:52.069Z,36.70
2023-01-29T12:34:51.963Z,36.10
2023-01-29T12:35:51.956Z,36.40
2023-01-29T12:36:51.944Z,35.60
2023-01-29T12:37:51.955Z,38.20
2023-01-29T12:38:51.928Z,36.90
2023-01-29T12:39:51.951Z,38.80
2023-01-29T12:40:51.904Z,36.30
2023-01-29T12:41:51.887Z,36.00
2023-01-29T12:42:51.907Z,37.70
2023-01-29T12:43:51.866Z,38.20
2023-01-29T12:44:51.875Z,34.80
2023-01-29T12:45:51.844Z,38.20
2023-01-29T12:46:51.879Z,36.30
2023-01-29T12:47:51.843Z,38.10
2023-01-29T12:48:51.820Z,35.90
2023-01-29T12:49:51.808Z,36.60
2023-01-29T12:50:51.798Z,36.70
2023-01-29T12:51:51.793Z,37.00
2023-01-29T12:52:51.803Z,37.70
2023-01-29T12:53:51.762Z,36.30